Time;durP1;ratioP1;P1;durP2;ratioP2;P2;SDS_P1;SDS_P2;PMS_P1;PMS_P2;Temp;Humidity;BMP_temperature;BMP_pressure;BME280_temperature;BME280_humidity;BME280_pressure;Samples;Min_cycle;Max_cycle;Signal;HPM_P1;HPM_P2
2023/06/04 00:00:12;;;;;;;1.67;1.57;;;15.70;47.80;15.00;96029.00;;;;5013675;28;20244;-57
2023/06/04 00:02:39;;;;;;;1.40;1.40;;;15.60;47.90;15.00;96036.00;;;;5013627;28;20193;-57
2023/06/04 00:05:07;;;;;;;1.20;1.20;;;15.60;47.70;15.00;96028.00;;;;5012160;28;20251;-57
2023/06/04 00:07:34;;;;;;;1.00;1.00;;;15.60;47.70;15.10;96024.00;;;;5013412;28;20196;-57
2023/06/04 00:10:01;;;;;;;0.83;0.83;;;15.70;47.60;15.00;96026.00;;;;5013398;28;20189;-57
2023/06/04 00:12:29;;;;;;;1.07;1.07;;;15.60;47.80;14.80;96026.00;;;;5013321;28;20212;-57
2023/06/04 00:14:56;;;;;;;2.10;2.00;;;15.50;48.00;14.60;96028.00;;;;5013384;28;20224;-57
2023/06/04 00:17:24;;;;;;;1.00;1.00;;;15.40;48.20;14.60;96026.00;;;;5013280;28;20224;-57
2023/06/04 00:19:51;;;;;;;1.00;1.00;;;15.30;48.80;14.50;96017.00;;;;5013334;28;20188;-57
2023/06/04 00:22:18;;;;;;;1.80;1.70;;;15.20;49.40;14.60;96028.00;;;;5013410;28;20585;-57
2023/06/04 00:24:45;;;;;;;1.57;1.47;;;15.20;49.00;14.50;96021.00;;;;5013337;28;20198;-56
2023/06/04 00:27:12;;;;;;;1.30;1.30;;;15.10;49.10;14.50;96016.00;;;;5013279;28;20193;-56
2023/06/04 00:29:39;;;;;;;1.93;1.77;;;15.10;49.80;14.50;96020.00;;;;5013295;28;20198;-57
2023/06/04 00:32:08;;;;;;;1.17;1.10;;;15.10;49.20;14.50;96014.00;;;;5016392;28;20216;-56
2023/06/04 00:34:36;;;;;;;1.90;1.80;;;15.20;49.30;14.40;96026.00;;;;5017433;28;20194;-56
2023/06/04 00:37:03;;;;;;;6.60;1.70;;;15.00;49.70;14.40;96031.00;;;;5017054;28;20217;-56
2023/06/04 00:39:30;;;;;;;0.93;0.93;;;15.10;49.70;14.50;96029.00;;;;5017566;28;20189;-56
2023/06/04 00:41:57;;;;;;;1.10;1.10;;;15.20;49.60;14.50;96020.00;;;;5016953;28;20684;-57
2023/06/04 00:44:25;;;;;;;5.53;2.13;;;15.10;49.30;14.40;96033.00;;;;5017056;28;20193;-57
2023/06/04 00:46:53;;;;;;;1.10;1.10;;;15.10;49.40;14.40;96032.00;;;;5016867;28;20200;-57
2023/06/04 00:49:20;;;;;;;0.80;0.80;;;15.10;49.40;14.40;96037.00;;;;5017156;28;20564;-57
2023/06/04 00:51:50;;;;;;;1.30;1.30;;;15.00;49.40;14.30;96038.00;;;;5017241;28;20228;-57
2023/06/04 00:54:17;;;;;;;1.17;1.17;;;14.90;49.80;14.20;96034.00;;;;5016782;28;20221;-57
2023/06/04 00:56:45;;;;;;;0.97;0.97;;;14.80;50.10;14.20;96032.00;;;;5016611;28;20194;-57
2023/06/04 00:59:12;;;;;;;1.27;1.27;;;14.90;50.30;14.10;96034.00;;;;5017186;28;20189;-57
2023/06/04 01:01:50;;;;;;;1.67;1.57;;;14.70;50.40;14.10;96039.00;;;;5016651;28;20209;-57
2023/06/04 01:04:24;;;;;;;1.83;1.73;;;14.70;50.30;14.10;96035.00;;;;5015358;28;20268;-57
2023/06/04 01:06:58;;;;;;;0.90;0.90;;;14.80;50.10;14.10;96029.00;;;;5016576;28;20185;-57
2023/06/04 01:09:27;;;;;;;1.17;1.17;;;14.80;49.90;14.00;96031.00;;;;5016859;28;20212;-57
2023/06/04 01:11:57;;;;;;;1.13;1.13;;;14.70;50.20;14.00;96032.00;;;;5016438;28;20664;-58
2023/06/04 01:14:25;;;;;;;1.70;1.60;;;;;13.80;96034.00;;;;5016414;28;20594;-58
2023/06/04 01:17:02;;;;;;;2.00;1.90;;;;;13.80;96033.00;;;;5016302;28;20193;-57
2023/06/04 01:20:03;;;;;;;1.43;1.43;;;;;13.80;96034.00;;;;5015369;28;20208;-57
2023/06/04 01:22:38;;;;;;;2.23;1.33;;;;;13.70;96033.00;;;;5016276;28;20196;-57
2023/06/04 01:25:18;;;;;;;1.00;1.00;;;;;13.80;96030.00;;;;5016302;28;20189;-57
2023/06/04 01:27:49;;;;;;;1.30;1.20;;;;;13.90;96037.00;;;;5016226;28;20185;-57
2023/06/04 01:30:17;;;;;;;1.50;1.40;;;;;13.90;96037.00;;;;5016395;28;20225;-57
2023/06/04 01:32:47;;;;;;;1.30;1.27;;;;;13.80;96027.00;;;;5016454;28;20204;-57
2023/06/04 01:35:15;;;;;;;1.50;1.43;;;;;13.70;96039.00;;;;5016613;28;20277;-57
2023/06/04 01:37:44;;;;;;;3.43;1.57;;;14.40;50.00;13.70;96030.00;;;;5016729;28;20300;-57
2023/06/04 01:40:12;;;;;;;1.37;1.27;;;14.30;51.30;13.60;96036.00;;;;5016475;28;20292;-57
2023/06/04 01:42:39;;;;;;;1.07;1.07;;;14.20;51.10;13.50;96035.00;;;;5015318;28;20200;-57
2023/06/04 01:45:07;;;;;;;1.87;1.73;;;14.20;51.60;13.50;96035.00;;;;5016156;28;20186;-57
2023/06/04 01:47:34;;;;;;;1.13;1.13;;;14.20;52.00;13.50;96040.00;;;;5016609;28;20213;-57
2023/06/04 01:50:02;;;;;;;1.83;1.73;;;14.20;52.10;13.50;96030.00;;;;5014450;28;20295;-57
2023/06/04 01:52:29;;;;;;;0.90;0.90;;;14.10;52.60;13.50;96036.00;;;;5015802;28;20541;-57
2023/06/04 01:54:58;;;;;;;1.73;1.63;;;14.20;52.40;13.40;96030.00;;;;5015646;28;20201;-55
2023/06/04 01:57:25;;;;;;;1.17;1.17;;;14.10;52.00;13.30;96027.00;;;;5015995;28;20232;-55
2023/06/04 01:59:52;;;;;;;3.23;1.60;;;14.10;51.70;13.30;96032.00;;;;5015449;28;20552;-55
2023/06/04 02:02:19;;;;;;;30.50;2.50;;;14.00;51.80;13.20;96035.00;;;;5015326;28;20216;-55
2023/06/04 02:04:47;;;;;;;1.67;1.43;;;13.90;52.30;13.10;96027.00;;;;5015398;28;20299;-55
2023/06/04 02:07:17;;;;;;;3.17;1.87;;;13.80;52.20;13.10;96031.00;;;;5015326;28;20193;-55
2023/06/04 02:09:44;;;;;;;0.90;0.90;;;13.80;52.70;13.20;96029.00;;;;5015293;28;20193;-55
2023/06/04 02:12:13;;;;;;;1.93;1.83;;;13.80;52.50;13.20;96028.00;;;;5015139;28;20214;-55
2023/06/04 02:14:41;;;;;;;0.87;0.87;;;13.90;52.40;13.20;96040.00;;;;5015382;28;20197;-55
2023/06/04 02:17:12;;;;;;;1.90;1.77;;;13.90;52.40;13.20;96033.00;;;;5015325;28;20185;-56
2023/06/04 02:19:45;;;;;;;2.27;1.60;;;13.90;52.30;13.20;96034.00;;;;5013866;28;20185;-56
2023/06/04 02:22:12;;;;;;;1.57;1.47;;;13.90;52.40;13.10;96030.00;;;;5015226;28;20300;-57
2023/06/04 02:24:42;;;;;;;0.80;0.80;;;13.80;52.30;13.10;96034.00;;;;5015007;28;20240;-58
2023/06/04 02:27:09;;;;;;;2.83;2.50;;;13.80;52.30;13.10;96028.00;;;;5015169;28;20190;-55
2023/06/04 02:29:38;;;;;;;1.60;1.50;;;13.70;52.50;13.00;96032.00;;;;5014898;28;20189;-56
2023/06/04 02:32:06;;;;;;;2.20;1.93;;;13.70;58.50;13.10;96026.00;;;;5014776;28;20221;-56
2023/06/04 02:34:34;;;;;;;1.13;1.13;;;13.80;55.40;12.90;96027.00;;;;5015109;28;20711;-58
2023/06/04 02:37:02;;;;;;;2.40;1.40;;;13.60;52.60;12.70;96030.00;;;;5014810;28;20704;-56
2023/06/04 02:39:29;;;;;;;1.73;1.63;;;13.50;53.10;12.70;96029.00;;;;5014666;28;20668;-56
2023/06/04 02:41:56;;;;;;;1.57;1.47;;;13.50;52.60;12.80;96041.00;;;;5014755;28;20213;-56
2023/06/04 02:44:23;;;;;;;1.27;1.17;;;13.40;53.30;12.90;96043.00;;;;5014989;28;20198;-56
2023/06/04 02:46:52;;;;;;;0.90;0.90;;;13.50;53.30;12.80;96031.00;;;;5014846;28;20185;-56
2023/06/04 02:49:19;;;;;;;1.93;1.57;;;13.50;53.00;12.70;96033.00;;;;5015103;28;20540;-56
2023/06/04 02:51:47;;;;;;;6.20;2.13;;;13.50;53.10;12.70;96032.00;;;;5014525;28;20217;-56
2023/06/04 02:54:15;;;;;;;8.33;1.90;;;13.40;53.20;12.60;96040.00;;;;5013865;28;20185;-56
2023/06/04 02:56:43;;;;;;;1.37;1.37;;;13.40;53.10;12.40;96040.00;;;;5014708;28;20216;-56
2023/06/04 02:59:11;;;;;;;0.90;0.90;;;13.20;53.70;12.40;96035.00;;;;5014361;28;20220;-56
2023/06/04 03:01:38;;;;;;;3.03;2.00;;;13.20;54.10;12.40;96039.00;;;;5014189;28;20217;-56
2023/06/04 03:04:09;;;;;;;1.27;1.27;;;13.20;54.10;12.30;96035.00;;;;5014319;28;20703;-56
2023/06/04 03:06:38;;;;;;;1.57;1.47;;;13.00;54.30;12.30;96043.00;;;;5014581;28;20185;-56
2023/06/04 03:09:06;;;;;;;1.67;1.57;;;12.90;54.70;12.30;96040.00;;;;5014241;28;20197;-56
2023/06/04 03:11:34;;;;;;;1.20;1.20;;;12.90;54.90;12.40;96043.00;;;;5014121;28;20209;-56
2023/06/04 03:14:01;;;;;;;2.00;1.50;;;13.00;54.50;12.40;96045.00;;;;5014463;28;20189;-56
2023/06/04 03:16:28;;;;;;;1.60;1.50;;;13.00;54.30;12.40;96035.00;;;;5013999;28;20197;-56
2023/06/04 03:18:55;;;;;;;1.73;1.63;;;13.00;54.30;12.40;96043.00;;;;5014244;28;20549;-56
2023/06/04 03:21:24;;;;;;;1.80;1.70;;;13.00;54.20;12.30;96038.00;;;;5013890;28;20703;-56
2023/06/04 03:23:52;;;;;;;1.67;1.57;;;13.00;54.60;12.30;96028.00;;;;5014204;28;20719;-56
2023/06/04 03:26:19;;;;;;;1.17;1.17;;;12.90;54.60;12.30;96047.00;;;;5013855;28;20269;-56
2023/06/04 03:28:46;;;;;;;1.30;1.30;;;13.00;54.70;12.30;96049.00;;;;5013814;28;20197;-56
2023/06/04 03:31:13;;;;;;;1.67;1.30;;;13.00;54.80;12.30;96045.00;;;;5013860;28;20209;-55
2023/06/04 03:33:40;;;;;;;0.90;0.90;;;12.90;55.00;12.20;96047.00;;;;5014033;28;20189;-56
2023/06/04 03:36:07;;;;;;;1.00;1.00;;;12.90;55.20;12.00;96049.00;;;;5013771;28;20204;-56
2023/06/04 03:38:35;;;;;;;1.47;1.43;;;12.80;54.80;12.00;96048.00;;;;5014017;28;20221;-57
2023/06/04 03:41:02;;;;;;;0.90;0.90;;;12.70;55.40;12.00;96054.00;;;;5013734;28;20215;-57
2023/06/04 03:43:29;;;;;;;1.50;1.40;;;12.70;55.10;12.00;96055.00;;;;5013778;28;20197;-57
2023/06/04 03:45:56;;;;;;;1.10;1.10;;;12.70;55.30;12.10;96060.00;;;;5013974;28;20308;-57
2023/06/04 03:48:23;;;;;;;1.87;1.70;;;12.80;55.30;12.10;96059.00;;;;5013588;28;20197;-57
2023/06/04 03:50:50;;;;;;;1.30;1.30;;;12.80;55.10;12.20;96054.00;;;;5013904;28;20263;-57
2023/06/04 03:53:17;;;;;;;1.77;1.67;;;12.90;55.10;12.30;96067.00;;;;5013642;28;20197;-57
2023/06/04 03:55:46;;;;;;;0.93;0.93;;;12.90;54.90;12.20;96062.00;;;;5013551;28;20189;-57
2023/06/04 03:58:14;;;;;;;0.80;0.80;;;12.80;54.70;12.30;96067.00;;;;5013543;28;20218;-57
2023/06/04 04:00:41;;;;;;;0.83;0.83;;;12.90;54.80;12.30;96060.00;;;;5013446;28;20208;-60
2023/06/04 04:03:09;;;;;;;1.33;1.30;;;12.90;54.50;12.20;96059.00;;;;5013782;28;20214;-57
2023/06/04 04:05:36;;;;;;;1.07;1.07;;;12.90;54.70;12.20;96066.00;;;;5013212;28;20679;-57
2023/06/04 04:08:05;;;;;;;1.27;1.27;;;12.90;54.40;12.10;96062.00;;;;5013727;28;20283;-57
2023/06/04 04:10:33;;;;;;;1.73;1.63;;;12.80;54.20;12.20;96060.00;;;;5013485;28;20268;-57
2023/06/04 04:13:01;;;;;;;1.17;1.17;;;12.80;54.60;12.20;96071.00;;;;5013410;28;20193;-57
2023/06/04 04:15:28;;;;;;;1.17;1.17;;;12.80;54.90;12.30;96065.00;;;;5013364;28;20204;-56
2023/06/04 04:17:56;;;;;;;1.87;1.60;;;12.90;54.70;12.30;96060.00;;;;5013237;28;20221;-57
2023/06/04 04:20:23;;;;;;;1.07;1.07;;;13.00;54.30;12.20;96073.00;;;;5013343;28;20734;-57
2023/06/04 04:22:50;;;;;;;0.77;0.77;;;12.90;54.20;12.30;96072.00;;;;5013602;28;20182;-57
2023/06/04 04:25:17;;;;;;;1.13;1.13;;;13.00;54.30;12.30;96066.00;;;;5013258;28;20197;-57
2023/06/04 04:27:44;;;;;;;1.93;1.83;;;12.90;54.30;12.30;96074.00;;;;5013270;28;20200;-57
2023/06/04 04:30:14;;;;;;;1.57;1.47;;;13.00;54.30;12.40;96067.00;;;;5013715;28;20656;-57
2023/06/04 04:32:48;;;;;;;1.33;1.23;;;13.00;54.00;12.40;96070.00;;;;5013328;28;20196;-57
2023/06/04 04:35:18;;;;;;;1.87;1.67;;;13.00;53.90;12.50;96070.00;;;;5013582;28;20255;-57
2023/06/04 04:37:45;;;;;;;2.20;1.50;;;13.10;54.00;12.30;96076.00;;;;5013326;28;20669;-57
2023/06/04 04:40:14;;;;;;;1.20;1.20;;;13.10;54.10;12.30;96082.00;;;;5013836;28;20256;-57
2023/06/04 04:42:41;;;;;;;2.43;2.03;;;13.00;54.10;12.00;96086.00;;;;5013599;28;20190;-57
2023/06/04 04:45:10;;;;;;;1.17;1.17;;;12.80;54.90;12.20;96078.00;;;;5013899;28;20272;-57
2023/06/04 04:47:38;;;;;;;1.97;1.87;;;12.90;55.70;12.30;96085.00;;;;5013801;28;20205;-57
2023/06/04 04:50:07;;;;;;;1.60;1.50;;;12.90;55.70;12.40;96082.00;;;;5013508;28;20652;-56
2023/06/04 04:52:35;;;;;;;26.30;1.83;;;;;12.60;96075.00;;;;5013463;28;20194;-57
2023/06/04 04:55:02;;;;;;;2.27;2.07;;;13.10;55.00;12.70;96066.00;;;;5012953;28;20193;-57
2023/06/04 04:57:29;;;;;;;1.43;1.40;;;13.20;55.10;12.70;96074.00;;;;5012903;28;20185;-57
2023/06/04 04:59:57;;;;;;;1.10;1.10;;;13.30;54.80;12.80;96078.00;;;;5013139;28;20547;-57
2023/06/04 05:02:24;;;;;;;2.90;1.67;;;13.30;54.60;12.80;96079.00;;;;5013049;28;20224;-57
2023/06/04 05:04:52;;;;;;;1.63;1.53;;;13.30;54.50;12.80;96078.00;;;;5013218;28;20189;-57
2023/06/04 05:07:21;;;;;;;1.73;1.63;;;13.40;54.20;12.80;96073.00;;;;5013414;28;20190;-57
2023/06/04 05:09:48;;;;;;;1.40;1.30;;;13.40;54.40;12.90;96082.00;;;;5012881;28;20531;-57
2023/06/04 05:12:15;;;;;;;1.77;1.67;;;13.50;54.30;13.00;96078.00;;;;5012704;28;20209;-57
2023/06/04 05:14:42;;;;;;;1.33;1.33;;;13.50;54.20;13.10;96085.00;;;;5012849;28;20592;-57
2023/06/04 05:17:10;;;;;;;1.53;1.30;;;13.60;54.00;13.20;96094.00;;;;5014077;28;20193;-57
2023/06/04 05:19:38;;;;;;;2.20;1.87;;;13.70;53.60;13.10;96090.00;;;;5016314;28;20380;-57
2023/06/04 05:22:06;;;;;;;1.83;1.73;;;13.70;53.80;13.20;96087.00;;;;5016409;28;20224;-57
2023/06/04 05:24:33;;;;;;;1.53;1.43;;;13.80;53.90;13.40;96092.00;;;;5016227;28;20186;-57
2023/06/04 05:27:03;;;;;;;1.33;1.10;;;13.90;53.40;13.50;96092.00;;;;5016164;28;20189;-57
2023/06/04 05:29:30;;;;;;;1.37;1.27;;;14.10;53.30;13.40;96095.00;;;;5016863;28;20525;-57
2023/06/04 05:31:57;;;;;;;1.37;1.37;;;14.00;53.20;13.40;96100.00;;;;5015923;28;20214;-56
2023/06/04 05:34:26;;;;;;;2.50;1.67;;;14.00;53.40;13.50;96109.00;;;;5016005;28;20186;-58
2023/06/04 05:36:53;;;;;;;1.67;1.57;;;14.00;53.40;13.50;96105.00;;;;5015960;28;20197;-57
2023/06/04 05:39:23;;;;;;;3.67;1.33;;;14.10;53.70;13.70;96112.00;;;;5014556;28;20217;-57
2023/06/04 05:41:50;;;;;;;1.07;1.07;;;14.20;53.20;13.70;96103.00;;;;5015739;28;20240;-56
2023/06/04 05:44:17;;;;;;;1.73;1.50;;;14.20;53.00;13.80;96103.00;;;;5015801;28;20201;-57
2023/06/04 05:46:44;;;;;;;1.67;1.57;;;14.30;52.60;13.90;96115.00;;;;5015626;28;20217;-57
2023/06/04 05:49:12;;;;;;;0.97;0.97;;;14.40;52.70;14.10;96114.00;;;;5015717;28;20194;-57
2023/06/04 05:51:39;;;;;;;1.30;1.30;;;14.60;51.90;14.10;96111.00;;;;5015581;28;20220;-57
2023/06/04 05:54:06;;;;;;;1.30;1.23;;;14.70;52.10;14.30;96113.00;;;;5015667;28;20200;-57
2023/06/04 05:56:35;;;;;;;1.27;1.27;;;14.90;50.80;14.50;96115.00;;;;5015596;28;20190;-57
2023/06/04 05:59:02;;;;;;;1.30;1.30;;;15.00;50.40;14.70;96120.00;;;;5015764;28;20762;-57
2023/06/04 06:01:29;;;;;;;2.13;1.63;;;15.20;50.10;14.90;96115.00;;;;5015411;28;20264;-57
2023/06/04 06:03:56;;;;;;;1.00;1.00;;;15.30;49.30;14.90;96108.00;;;;5015501;28;20240;-57
2023/06/04 06:06:23;;;;;;;1.90;1.80;;;15.40;49.10;15.00;96119.00;;;;5015440;28;20196;-57
2023/06/04 06:08:50;;;;;;;0.70;0.70;;;15.50;48.10;15.10;96118.00;;;;5015853;28;20679;-57
2023/06/04 06:11:17;;;;;;;1.70;1.47;;;15.60;46.80;15.10;96117.00;;;;5015232;28;20214;-56
2023/06/04 06:13:46;;;;;;;1.07;1.07;;;15.60;46.30;15.20;96117.00;;;;5015162;28;20645;-57
2023/06/04 06:16:13;;;;;;;1.50;1.40;;;15.60;45.80;15.20;96114.00;;;;5015265;28;20189;-57
2023/06/04 06:18:40;;;;;;;1.67;1.57;;;15.70;45.90;15.20;96118.00;;;;5013856;28;20225;-58
2023/06/04 06:21:07;;;;;;;1.73;1.63;;;15.80;45.30;15.40;96123.00;;;;5014994;28;20239;-57
2023/06/04 06:23:34;;;;;;;1.00;1.00;;;15.90;46.00;15.60;96115.00;;;;5015108;28;20194;-57
2023/06/04 06:26:03;;;;;;;1.00;1.00;;;16.10;45.20;15.50;96113.00;;;;5015083;28;20201;-57
2023/06/04 06:28:30;;;;;;;0.97;0.97;;;16.10;45.50;15.70;96119.00;;;;5014956;28;20197;-57
2023/06/04 06:30:58;;;;;;;1.00;1.00;;;16.20;43.50;15.70;96124.00;;;;5015471;28;20205;-57
2023/06/04 06:33:25;;;;;;;0.70;0.70;;;16.20;43.40;15.80;96131.00;;;;5015066;28;20652;-57
2023/06/04 06:35:52;;;;;;;0.60;0.60;;;16.30;43.20;15.50;96134.00;;;;5014952;28;20190;-57
2023/06/04 06:38:20;;;;;;;1.27;1.20;;;16.10;44.40;15.70;96142.00;;;;5014983;28;20199;-57
2023/06/04 06:40:47;;;;;;;0.93;0.93;;;16.10;44.10;15.50;96132.00;;;;5015132;28;20212;-57
2023/06/04 06:43:15;;;;;;;0.57;0.57;;;16.10;43.90;15.50;96130.00;;;;5014806;28;20214;-57
2023/06/04 06:45:42;;;;;;;1.03;1.03;;;16.00;43.30;15.50;96132.00;;;;5014997;28;20280;-57
2023/06/04 06:48:10;;;;;;;1.23;1.23;;;16.10;43.60;15.80;96137.00;;;;5014738;28;20190;-57
2023/06/04 06:50:37;;;;;;;0.90;0.90;;;16.30;42.80;15.90;96123.00;;;;5014612;28;20213;-57
2023/06/04 06:53:07;;;;;;;1.13;1.03;;;16.40;42.40;16.20;96128.00;;;;5014639;28;20196;-57
2023/06/04 06:55:34;;;;;;;0.80;0.80;;;16.60;41.50;16.20;96124.00;;;;5014634;28;20211;-57
2023/06/04 06:58:02;;;;;;;1.10;1.00;;;16.70;41.00;16.50;96127.00;;;;5014588;28;20660;-57
2023/06/04 07:00:29;;;;;;;1.73;1.63;;;16.90;39.90;16.40;96123.00;;;;5014400;28;20713;-56
2023/06/04 07:02:56;;;;;;;3.50;1.43;;;16.90;39.10;16.30;96119.00;;;;5014678;28;20314;-56
2023/06/04 07:05:25;;;;;;;1.40;1.30;;;16.90;39.50;16.40;96127.00;;;;5014381;28;20273;-57
2023/06/04 07:07:53;;;;;;;1.67;1.43;;;16.90;40.00;16.80;96123.00;;;;5014278;28;20197;-57
2023/06/04 07:10:20;;;;;;;1.27;1.10;;;17.20;39.70;16.90;96129.00;;;;5014398;28;20604;-56
2023/06/04 07:12:47;;;;;;;0.63;0.63;;;17.30;39.30;17.10;96124.00;;;;5014249;28;20185;-57
2023/06/04 07:15:14;;;;;;;1.07;1.00;;;17.50;39.10;17.30;96124.00;;;;5014420;28;20664;-57
2023/06/04 07:17:41;;;;;;;0.93;0.93;;;17.70;38.70;17.40;96120.00;;;;5014232;28;20245;-57
2023/06/04 07:20:09;;;;;;;1.03;1.03;;;17.80;37.90;17.50;96129.00;;;;5014371;28;20216;-57
2023/06/04 07:22:38;;;;;;;0.70;0.70;;;17.90;37.40;17.70;96129.00;;;;5014311;28;20201;-56
2023/06/04 07:25:07;;;;;;;0.83;0.83;;;18.10;37.70;17.80;96130.00;;;;5014382;28;20559;-57
2023/06/04 07:27:35;;;;;;;0.60;0.60;;;18.20;37.20;17.90;96124.00;;;;5014199;28;20194;-58
2023/06/04 07:30:03;;;;;;;0.83;0.83;;;18.40;37.10;17.70;96126.00;;;;5014085;28;20545;-57
2023/06/04 07:32:30;;;;;;;1.43;1.33;;;18.20;36.70;18.00;96118.00;;;;5014066;28;20198;-57
2023/06/04 07:34:57;;;;;;;0.97;0.97;;;18.40;37.00;18.20;96115.00;;;;5014305;28;20193;-57
2023/06/04 07:37:24;;;;;;;2.37;1.13;;;18.60;37.30;18.20;96115.00;;;;5013821;28;20197;-57
2023/06/04 07:39:52;;;;;;;1.30;1.20;;;18.70;36.30;18.10;96121.00;;;;5013262;28;20229;-57
2023/06/04 07:42:19;;;;;;;1.13;1.13;;;18.60;36.80;18.20;96120.00;;;;5013553;28;20601;-57
2023/06/04 07:44:46;;;;;;;1.30;1.20;;;18.70;37.00;18.40;96122.00;;;;5014062;28;20194;-57
2023/06/04 07:47:13;;;;;;;2.00;1.60;;;18.90;37.20;18.40;96123.00;;;;5013687;28;20244;-57
2023/06/04 07:49:40;;;;;;;1.20;1.20;;;18.90;37.30;18.60;96117.00;;;;5013956;28;20679;-57
2023/06/04 07:52:08;;;;;;;0.93;0.93;;;19.00;36.50;18.90;96126.00;;;;5013635;28;20244;-57
2023/06/04 07:54:35;;;;;;;2.00;1.03;;;19.30;36.40;19.00;96126.00;;;;5012345;28;20681;-57
2023/06/04 07:57:03;;;;;;;0.70;0.70;;;19.40;36.70;19.00;96113.00;;;;5014306;28;20280;-57
2023/06/04 07:59:31;;;;;;;1.27;0.73;;;;;19.00;96113.00;;;;5014214;28;20300;-58
2023/06/04 08:01:58;;;;;;;1.07;1.07;;;19.60;36.10;19.10;96112.00;;;;5012176;28;20280;-57
2023/06/04 08:04:25;;;;;;;4.53;1.53;;;19.60;35.90;19.20;96121.00;;;;5013529;28;20672;-57
2023/06/04 08:06:52;;;;;;;0.70;0.70;;;19.60;36.30;19.50;96122.00;;;;5013464;28;20273;-57
2023/06/04 08:09:20;;;;;;;1.77;1.03;;;19.90;35.80;19.50;96115.00;;;;5013437;28;20686;-57
2023/06/04 08:11:47;;;;;;;0.90;0.90;;;19.90;34.50;19.50;96116.00;;;;5013433;28;20209;-57
2023/06/04 08:14:15;;;;;;;1.00;1.00;;;19.90;34.00;19.70;96105.00;;;;5013663;28;20185;-57
2023/06/04 08:16:42;;;;;;;1.53;1.43;;;20.10;35.00;19.60;96118.00;;;;5013393;28;20188;-57
2023/06/04 08:19:09;;;;;;;0.97;0.97;;;20.10;34.20;19.60;96113.00;;;;5013578;28;20228;-57
2023/06/04 08:21:37;;;;;;;1.50;0.67;;;20.10;34.30;19.60;96118.00;;;;5012084;28;20225;-57
2023/06/04 08:24:04;;;;;;;0.90;0.90;;;20.10;34.40;19.90;96113.00;;;;5013587;28;20671;-57
2023/06/04 08:26:32;;;;;;;1.40;1.30;;;20.20;34.50;19.90;96115.00;;;;5013383;28;20190;-58
2023/06/04 08:28:59;;;;;;;1.17;1.07;;;20.30;34.00;19.90;96116.00;;;;5013888;28;20194;-57
2023/06/04 08:31:27;;;;;;;1.27;1.23;;;20.30;33.80;19.90;96117.00;;;;5013463;28;20209;-57
2023/06/04 08:33:54;;;;;;;0.87;0.83;;;20.50;33.20;20.00;96115.00;;;;5013414;28;20196;-57
2023/06/04 08:36:21;;;;;;;2.07;0.97;;;20.50;32.60;20.30;96111.00;;;;5013307;28;20724;-57
2023/06/04 08:38:50;;;;;;;0.60;0.60;;;20.60;33.50;20.50;96112.00;;;;5013580;28;20197;-57
2023/06/04 08:41:27;;;;;;;0.73;0.73;;;20.80;32.80;20.60;96115.00;;;;5013058;28;20224;-57
2023/06/04 08:43:57;;;;;;;0.73;0.73;;;20.90;32.50;20.70;96113.00;;;;5012981;28;20177;-57
2023/06/04 08:46:26;;;;;;;0.80;0.80;;;21.10;31.60;20.90;96122.00;;;;5011680;28;20237;-57
2023/06/04 08:49:00;;;;;;;1.17;1.15;;;21.20;31.30;20.80;96130.00;;;;5013299;28;20196;-57
2023/06/04 08:51:27;;;;;;;0.77;0.77;;;21.20;30.20;21.00;96125.00;;;;5013345;28;20224;-58
2023/06/04 08:53:57;;;;;;;0.70;0.70;;;21.30;30.10;20.90;96129.00;;;;5015627;28;20661;-57
2023/06/04 08:56:24;;;;;;;0.90;0.90;;;21.30;29.40;21.10;96133.00;;;;5016938;28;20652;-57
2023/06/04 08:58:52;;;;;;;1.98;1.20;;;21.40;29.50;20.80;96137.00;;;;5015650;28;20235;-56
2023/06/04 09:01:19;;;;;;;1.23;1.13;;;21.30;29.90;21.10;96141.00;;;;5016944;28;20225;-57
2023/06/04 09:03:47;;;;;;;0.80;0.80;;;21.50;29.30;21.20;96137.00;;;;5016654;28;20661;-58
2023/06/04 09:06:16;;;;;;;0.75;0.75;;;21.50;28.90;21.30;96145.00;;;;5016566;28;20185;-58
2023/06/04 09:08:46;;;;;;;0.90;0.90;;;21.60;30.20;21.20;96140.00;;;;5016493;28;20189;-57
2023/06/04 09:11:16;;;;;;;1.58;1.05;;;21.70;29.50;21.30;96139.00;;;;5016425;28;20268;-57
2023/06/04 09:13:48;;;;;;;1.10;1.10;;;21.70;29.20;21.50;96146.00;;;;5016506;28;20541;-57
2023/06/04 09:16:15;;;;;;;0.90;0.90;;;21.80;28.30;21.50;96155.00;;;;5016635;28;20263;-57
2023/06/04 09:18:42;;;;;;;0.70;0.70;;;21.90;28.40;21.60;96143.00;;;;5016308;28;20190;-57
2023/06/04 09:21:10;;;;;;;0.65;0.65;;;22.00;28.40;21.70;96148.00;;;;5016019;28;20225;-57
2023/06/04 09:23:45;;;;;;;0.73;0.73;;;22.10;27.60;21.60;96152.00;;;;5016343;28;20220;-57
2023/06/04 09:26:12;;;;;;;2.22;1.45;;;22.00;27.60;22.00;96153.00;;;;5016294;28;20628;-58
2023/06/04 09:28:42;;;;;;;0.85;0.85;;;22.20;30.10;22.00;96156.00;;;;5016297;28;20198;-58
2023/06/04 09:31:10;;;;;;;0.82;0.80;;;22.40;28.80;22.30;96153.00;;;;5016652;28;20217;-57
2023/06/04 09:33:45;;;;;;;0.70;0.70;;;22.60;27.20;22.40;96153.00;;;;5016415;28;20181;-58
2023/06/04 09:36:12;;;;;;;4.25;0.93;;;22.80;25.50;22.10;96150.00;;;;5016311;28;20600;-57
2023/06/04 09:38:41;;;;;;;1.08;1.08;;;22.60;25.60;22.30;96156.00;;;;5016012;28;20190;-58
2023/06/04 09:41:13;;;;;;;1.00;1.00;;;22.70;25.80;22.20;96157.00;;;;5014586;28;20225;-57
2023/06/04 09:43:40;;;;;;;0.80;0.80;;;22.70;25.00;22.10;96151.00;;;;5015862;28;20182;-57
2023/06/04 09:46:12;;;;;;;1.27;1.17;;;22.60;25.80;22.10;96161.00;;;;5016150;28;20239;-57
2023/06/04 09:48:40;;;;;;;0.98;0.98;;;22.50;25.10;21.90;96153.00;;;;5016126;28;20215;-57
2023/06/04 09:51:09;;;;;;;1.00;1.00;;;22.40;25.50;22.20;96160.00;;;;5015936;28;20221;-56
2023/06/04 09:53:36;;;;;;;1.23;1.13;;;22.50;25.50;22.60;96157.00;;;;5015712;28;20700;-56
2023/06/04 09:56:07;;;;;;;1.38;0.98;;;22.80;25.90;22.90;96152.00;;;;5015644;28;20194;-56
2023/06/04 09:58:35;;;;;;;1.60;1.25;;;23.10;25.50;22.80;96155.00;;;;5015878;28;20170;-56
2023/06/04 10:01:05;;;;;;;1.00;0.98;;;;;22.70;96161.00;;;;5015613;28;20259;-57
2023/06/04 10:03:34;;;;;;;0.80;0.80;;;;;22.90;96154.00;;;;5015118;28;20201;-57
2023/06/04 10:06:05;;;;;;;1.10;1.10;;;;;22.40;96155.00;;;;5016025;28;20280;-57
2023/06/04 10:08:34;;;;;;;0.80;0.80;;;;;22.50;96153.00;;;;5015475;28;20188;-57
2023/06/04 10:11:05;;;;;;;1.05;1.05;;;;;22.80;96150.00;;;;5015383;28;20209;-57
2023/06/04 10:13:39;;;;;;;2.72;2.50;;;;;22.90;96150.00;;;;5015671;28;20652;-57
2023/06/04 10:16:07;;;;;;;1.48;0.98;;;;;22.90;96152.00;;;;5015601;28;20239;-57
2023/06/04 10:18:36;;;;;;;1.00;1.00;;;;;23.20;96148.00;;;;5015290;28;20193;-57
2023/06/04 10:21:04;;;;;;;1.52;1.42;;;;;23.30;96152.00;;;;5015165;28;20227;-57
2023/06/04 10:23:32;;;;;;;1.60;1.50;;;;;23.40;96147.00;;;;5015202;28;20606;-57
2023/06/04 10:25:59;;;;;;;0.95;0.90;;;;;23.60;96147.00;;;;5015440;28;20599;-57
2023/06/04 10:28:29;;;;;;;0.70;0.70;;;;;23.50;96144.00;;;;5015198;28;20248;-56
2023/06/04 10:30:56;;;;;;;1.17;1.08;;;;;23.60;96146.00;;;;5015009;28;20317;-57
2023/06/04 10:33:24;;;;;;;0.80;0.80;;;;;23.20;96144.00;;;;5015032;28;20699;-56
2023/06/04 10:35:54;;;;;;;2.30;1.08;;;;;23.40;96150.00;;;;5015021;28;20565;-56
2023/06/04 10:38:22;;;;;;;0.70;0.70;;;;;23.20;96146.00;;;;5013686;28;20664;-57
2023/06/04 10:40:49;;;;;;;0.98;0.98;;;;;23.60;96145.00;;;;5014715;28;20228;-57
2023/06/04 10:43:17;;;;;;;0.93;0.93;;;;;23.70;96146.00;;;;5014808;28;20200;-57
2023/06/04 10:45:46;;;;;;;0.80;0.80;;;;;23.60;96138.00;;;;5015248;28;20200;-57
2023/06/04 10:48:14;;;;;;;0.60;0.60;;;;;23.90;96146.00;;;;5014975;28;20616;-57
2023/06/04 10:50:52;;;;;;;0.88;0.88;;;;;23.90;96137.00;;;;5014523;28;20205;-58
2023/06/04 10:53:20;;;;;;;0.88;0.88;;;;;23.80;96135.00;;;;5014879;28;20577;-58
2023/06/04 10:55:49;;;;;;;2.28;1.20;;;;;24.20;96132.00;;;;5014551;28;20284;-58
2023/06/04 10:58:17;;;;;;;1.50;1.40;;;;;24.10;96135.00;;;;5014532;28;20200;-56
2023/06/04 11:00:49;;;;;;;0.77;0.77;;;;;24.30;96135.00;;;;5014921;28;20774;-56
2023/06/04 11:03:17;;;;;;;0.80;0.80;;;;;24.40;96137.00;;;;5014409;28;20182;-56
2023/06/04 11:05:47;;;;;;;0.80;0.80;;;;;24.50;96143.00;;;;5014768;28;20201;-56
2023/06/04 11:08:15;;;;;;;0.82;0.82;;;;;24.60;96140.00;;;;5014338;28;20228;-56